sensor_id;sensor_type;location;lat;lon;timestamp;temperature;humidity
15556;DHT22;7879;48.660;9.116;2023-10-09T00:01:44;10.90;99.90
15556;DHT22;7879;48.660;9.116;2023-10-09T00:04:13;11.00;99.90
15556;DHT22;7879;48.660;9.116;2023-10-09T00:06:43;10.90;99.90
15556;DHT22;7879;48.660;9.116;2023-10-09T00:09:10;10.80;99.90
15556;DHT22;7879;48.660;9.116;2023-10-09T00:11:45;10.80;99.90
15556;DHT22;7879;48.660;9.116;2023-10-09T00:14:12;10.80;99.90
15556;DHT22;7879;48.660;9.116;2023-10-09T00:16:39;10.70;99.90
15556;DHT22;7879;48.660;9.116;2023-10-09T00:19:15;10.70;99.90
15556;DHT22;7879;48.660;9.116;2023-10-09T00:22:09;10.70;99.90
15556;DHT22;7879;48.660;9.116;2023-10-09T00:24:53;10.60;99.90
15556;DHT22;7879;48.660;9.116;2023-10-09T00:27:42;10.70;99.90
15556;DHT22;7879;48.660;9.116;2023-10-09T00:30:14;10.60;99.90
15556;DHT22;7879;48.660;9.116;2023-10-09T00:32:45;10.60;99.90
15556;DHT22;7879;48.660;9.116;2023-10-09T00:35:36;10.50;99.90
15556;DHT22;7879;48.660;9.116;2023-10-09T00:38:07;10.50;99.90
15556;DHT22;7879;48.660;9.116;2023-10-09T00:40:47;10.50;99.90
15556;DHT22;7879;48.660;9.116;2023-10-09T00:43:23;10.50;99.90
15556;DHT22;7879;48.660;9.116;2023-10-09T00:45:55;10.50;99.90
15556;DHT22;7879;48.660;9.116;2023-10-09T00:48:23;10.50;99.90
15556;DHT22;7879;48.660;9.116;2023-10-09T00:50:58;10.40;99.90
15556;DHT22;7879;48.660;9.116;2023-10-09T00:53:27;10.50;99.90
15556;DHT22;7879;48.660;9.116;2023-10-09T00:56:01;10.50;99.90
15556;DHT22;7879;48.660;9.116;2023-10-09T00:58:48;10.50;99.90
15556;DHT22;7879;48.660;9.116;2023-10-09T01:01:22;10.50;99.90
15556;DHT22;7879;48.660;9.116;2023-10-09T01:04:02;10.40;99.90
15556;DHT22;7879;48.660;9.116;2023-10-09T01:06:46;10.40;99.90
15556;DHT22;7879;48.660;9.116;2023-10-09T01:09:32;10.40;99.90
15556;DHT22;7879;48.660;9.116;2023-10-09T01:12:09;10.40;99.90
15556;DHT22;7879;48.660;9.116;2023-10-09T01:14:44;10.30;99.90
15556;DHT22;7879;48.660;9.116;2023-10-09T01:17:11;10.30;99.90
15556;DHT22;7879;48.660;9.116;2023-10-09T01:19:45;10.30;99.90
15556;DHT22;7879;48.660;9.116;2023-10-09T01:22:13;10.40;99.90
15556;DHT22;7879;48.660;9.116;2023-10-09T01:24:41;10.30;99.90
15556;DHT22;7879;48.660;9.116;2023-10-09T01:27:09;10.30;99.90
15556;DHT22;7879;48.660;9.116;2023-10-09T01:29:43;10.30;99.90
15556;DHT22;7879;48.660;9.116;2023-10-09T01:32:13;10.30;99.90
15556;DHT22;7879;48.660;9.116;2023-10-09T01:34:46;10.40;99.90
15556;DHT22;7879;48.660;9.116;2023-10-09T01:37:19;10.30;99.90
15556;DHT22;7879;48.660;9.116;2023-10-09T01:39:51;10.20;99.90
15556;DHT22;7879;48.660;9.116;2023-10-09T01:42:20;10.30;99.90
15556;DHT22;7879;48.660;9.116;2023-10-09T01:44:54;10.30;99.90
15556;DHT22;7879;48.660;9.116;2023-10-09T01:47:22;10.30;99.90
15556;DHT22;7879;48.660;9.116;2023-10-09T01:49:49;10.30;99.90
15556;DHT22;7879;48.660;9.116;2023-10-09T01:52:16;10.30;99.90
15556;DHT22;7879;48.660;9.116;2023-10-09T01:54:50;10.30;99.90
15556;DHT22;7879;48.660;9.116;2023-10-09T01:57:18;10.40;99.90
15556;DHT22;7879;48.660;9.116;2023-10-09T01:59:52;10.30;99.90
15556;DHT22;7879;48.660;9.116;2023-10-09T02:02:22;10.40;99.90
15556;DHT22;7879;48.660;9.116;2023-10-09T02:05:03;10.30;99.90
15556;DHT22;7879;48.660;9.116;2023-10-09T02:07:51;10.40;99.90
15556;DHT22;7879;48.660;9.116;2023-10-09T02:10:23;10.40;99.90
15556;DHT22;7879;48.660;9.116;2023-10-09T02:12:57;10.50;99.90
15556;DHT22;7879;48.660;9.116;2023-10-09T02:15:29;10.40;99.90
15556;DHT22;7879;48.660;9.116;2023-10-09T02:18:17;10.40;99.90
15556;DHT22;7879;48.660;9.116;2023-10-09T02:20:45;10.40;99.90
15556;DHT22;7879;48.660;9.116;2023-10-09T02:23:12;10.40;99.90
15556;DHT22;7879;48.660;9.116;2023-10-09T02:25:40;10.40;99.90
15556;DHT22;7879;48.660;9.116;2023-10-09T02:28:10;10.40;99.90
15556;DHT22;7879;48.660;9.116;2023-10-09T02:30:46;10.50;99.90
15556;DHT22;7879;48.660;9.116;2023-10-09T02:33:17;10.40;99.90
15556;DHT22;7879;48.660;9.116;2023-10-09T02:36:00;10.40;99.90
15556;DHT22;7879;48.660;9.116;2023-10-09T02:38:32;10.50;99.90
15556;DHT22;7879;48.660;9.116;2023-10-09T02:41:04;10.50;99.90
15556;DHT22;7879;48.660;9.116;2023-10-09T02:43:34;10.50;99.90
15556;DHT22;7879;48.660;9.116;2023-10-09T02:46:12;10.50;99.90
15556;DHT22;7879;48.660;9.116;2023-10-09T02:48:49;10.40;99.90
15556;DHT22;7879;48.660;9.116;2023-10-09T02:51:20;10.40;99.90
15556;DHT22;7879;48.660;9.116;2023-10-09T02:53:58;10.50;99.90
15556;DHT22;7879;48.660;9.116;2023-10-09T02:56:25;10.40;99.90
15556;DHT22;7879;48.660;9.116;2023-10-09T02:59:10;10.30;99.90
15556;DHT22;7879;48.660;9.116;2023-10-09T03:01:38;10.30;99.90
15556;DHT22;7879;48.660;9.116;2023-10-09T03:04:05;10.30;99.90
15556;DHT22;7879;48.660;9.116;2023-10-09T03:06:33;10.30;99.90
15556;DHT22;7879;48.660;9.116;2023-10-09T03:09:06;10.30;99.90
15556;DHT22;7879;48.660;9.116;2023-10-09T03:11:48;10.30;99.90
15556;DHT22;7879;48.660;9.116;2023-10-09T03:14:21;10.30;99.90
15556;DHT22;7879;48.660;9.116;2023-10-09T03:16:48;10.40;99.90
15556;DHT22;7879;48.660;9.116;2023-10-09T03:19:15;10.40;99.90
15556;DHT22;7879;48.660;9.116;2023-10-09T03:21:43;10.40;99.90
15556;DHT22;7879;48.660;9.116;2023-10-09T03:24:10;10.40;99.90
15556;DHT22;7879;48.660;9.116;2023-10-09T03:26:38;10.40;99.90
15556;DHT22;7879;48.660;9.116;2023-10-09T03:29:05;10.40;99.90
15556;DHT22;7879;48.660;9.116;2023-10-09T03:31:37;10.40;99.90
15556;DHT22;7879;48.660;9.116;2023-10-09T03:34:05;10.40;99.90
15556;DHT22;7879;48.660;9.116;2023-10-09T03:36:33;10.40;99.90
15556;DHT22;7879;48.660;9.116;2023-10-09T03:39:05;10.40;99.90
15556;DHT22;7879;48.660;9.116;2023-10-09T03:41:45;10.40;99.90
15556;DHT22;7879;48.660;9.116;2023-10-09T03:44:14;10.50;99.90
15556;DHT22;7879;48.660;9.116;2023-10-09T03:46:45;10.50;99.90
15556;DHT22;7879;48.660;9.116;2023-10-09T03:49:12;10.50;99.90
15556;DHT22;7879;48.660;9.116;2023-10-09T03:51:40;10.50;99.90
15556;DHT22;7879;48.660;9.116;2023-10-09T03:54:08;10.50;99.90
15556;DHT22;7879;48.660;9.116;2023-10-09T03:56:36;10.50;99.90
15556;DHT22;7879;48.660;9.116;2023-10-09T03:59:03;10.50;99.90
15556;DHT22;7879;48.660;9.116;2023-10-09T04:01:31;10.50;99.90
15556;DHT22;7879;48.660;9.116;2023-10-09T04:04:07;10.40;99.90
15556;DHT22;7879;48.660;9.116;2023-10-09T04:06:37;10.40;99.90
15556;DHT22;7879;48.660;9.116;2023-10-09T04:09:07;10.40;99.90
15556;DHT22;7879;48.660;9.116;2023-10-09T04:11:55;10.40;99.90
15556;DHT22;7879;48.660;9.116;2023-10-09T04:14:41;10.30;99.90
15556;DHT22;7879;48.660;9.116;2023-10-09T04:17:16;10.40;99.90
15556;DHT22;7879;48.660;9.116;2023-10-09T04:19:50;10.40;99.90
15556;DHT22;7879;48.660;9.116;2023-10-09T04:22:37;10.40;99.90
15556;DHT22;7879;48.660;9.116;2023-10-09T04:25:20;10.40;99.90
15556;DHT22;7879;48.660;9.116;2023-10-09T04:27:58;10.40;99.90
15556;DHT22;7879;48.660;9.116;2023-10-09T04:30:46;10.30;99.90
15556;DHT22;7879;48.660;9.116;2023-10-09T04:33:14;10.30;99.90
15556;DHT22;7879;48.660;9.116;2023-10-09T04:36:05;10.30;99.90
15556;DHT22;7879;48.660;9.116;2023-10-09T04:38:48;10.30;99.90
15556;DHT22;7879;48.660;9.116;2023-10-09T04:41:31;10.30;99.90
15556;DHT22;7879;48.660;9.116;2023-10-09T04:44:19;10.20;99.90
15556;DHT22;7879;48.660;9.116;2023-10-09T04:46:50;10.20;99.90
15556;DHT22;7879;48.660;9.116;2023-10-09T04:49:41;10.20;99.90
15556;DHT22;7879;48.660;9.116;2023-10-09T04:52:30;10.10;99.90
15556;DHT22;7879;48.660;9.116;2023-10-09T04:54:58;10.10;99.90
15556;DHT22;7879;48.660;9.116;2023-10-09T04:57:35;10.10;99.90
15556;DHT22;7879;48.660;9.116;2023-10-09T05:00:28;10.00;99.90
15556;DHT22;7879;48.660;9.116;2023-10-09T05:03:00;10.00;99.90
15556;DHT22;7879;48.660;9.116;2023-10-09T05:05:38;10.00;99.90
15556;DHT22;7879;48.660;9.116;2023-10-09T05:08:18;10.00;99.90
15556;DHT22;7879;48.660;9.116;2023-10-09T05:10:53;9.90;99.90
15556;DHT22;7879;48.660;9.116;2023-10-09T05:13:30;10.00;99.90
15556;DHT22;7879;48.660;9.116;2023-10-09T05:18:56;10.00;99.90
15556;DHT22;7879;48.660;9.116;2023-10-09T05:21:26;10.00;99.90
15556;DHT22;7879;48.660;9.116;2023-10-09T05:24:02;10.00;99.90
15556;DHT22;7879;48.660;9.116;2023-10-09T05:26:42;10.00;99.90
15556;DHT22;7879;48.660;9.116;2023-10-09T05:29:21;10.00;99.90
15556;DHT22;7879;48.660;9.116;2023-10-09T05:32:01;10.00;99.90
15556;DHT22;7879;48.660;9.116;2023-10-09T05:34:45;10.00;99.90
15556;DHT22;7879;48.660;9.116;2023-10-09T05:37:29;10.00;99.90
15556;DHT22;7879;48.660;9.116;2023-10-09T05:40:05;10.00;99.90
15556;DHT22;7879;48.660;9.116;2023-10-09T05:42:45;10.00;99.90
15556;DHT22;7879;48.660;9.116;2023-10-09T05:45:18;10.00;99.90
15556;DHT22;7879;48.660;9.116;2023-10-09T05:47:47;10.00;99.90
15556;DHT22;7879;48.660;9.116;2023-10-09T05:50:25;10.10;99.90
15556;DHT22;7879;48.660;9.116;2023-10-09T05:52:56;10.00;99.90
15556;DHT22;7879;48.660;9.116;2023-10-09T05:55:31;10.00;99.90
15556;DHT22;7879;48.660;9.116;2023-10-09T05:58:17;10.00;99.90
15556;DHT22;7879;48.660;9.116;2023-10-09T06:01:02;10.00;99.90
15556;DHT22;7879;48.660;9.116;2023-10-09T06:03:52;10.00;99.90
15556;DHT22;7879;48.660;9.116;2023-10-09T06:06:23;10.00;99.90
15556;DHT22;7879;48.660;9.116;2023-10-09T06:09:09;10.10;99.90
15556;DHT22;7879;48.660;9.116;2023-10-09T06:11:55;10.10;99.90
15556;DHT22;7879;48.660;9.116;2023-10-09T06:14:42;10.10;99.90
15556;DHT22;7879;48.660;9.116;2023-10-09T06:17:09;10.10;99.90
15556;DHT22;7879;48.660;9.116;2023-10-09T06:19:38;10.10;99.90
15556;DHT22;7879;48.660;9.116;2023-10-09T06:22:11;10.10;99.90
15556;DHT22;7879;48.660;9.116;2023-10-09T06:24:39;10.20;99.90
15556;DHT22;7879;48.660;9.116;2023-10-09T06:27:11;10.20;99.90
15556;DHT22;7879;48.660;9.116;2023-10-09T06:29:41;10.30;99.90
15556;DHT22;7879;48.660;9.116;2023-10-09T06:32:12;10.20;99.90
15556;DHT22;7879;48.660;9.116;2023-10-09T06:34:46;10.30;99.90
15556;DHT22;7879;48.660;9.116;2023-10-09T06:37:13;10.30;99.90
15556;DHT22;7879;48.660;9.116;2023-10-09T06:39:56;10.40;99.90
15556;DHT22;7879;48.660;9.116;2023-10-09T06:42:27;10.40;99.90
15556;DHT22;7879;48.660;9.116;2023-10-09T06:45:04;10.40;99.90
15556;DHT22;7879;48.660;9.116;2023-10-09T06:47:40;10.50;99.90
15556;DHT22;7879;48.660;9.116;2023-10-09T06:50:11;10.50;99.90
15556;DHT22;7879;48.660;9.116;2023-10-09T06:52:51;10.50;99.90
15556;DHT22;7879;48.660;9.116;2023-10-09T06:55:25;10.60;99.90
15556;DHT22;7879;48.660;9.116;2023-10-09T06:58:04;10.60;99.90
15556;DHT22;7879;48.660;9.116;2023-10-09T07:00:40;10.70;99.90
15556;DHT22;7879;48.660;9.116;2023-10-09T07:03:25;10.70;99.90
15556;DHT22;7879;48.660;9.116;2023-10-09T07:06:05;10.70;99.90
15556;DHT22;7879;48.660;9.116;2023-10-09T07:08:37;10.80;99.90
15556;DHT22;7879;48.660;9.116;2023-10-09T07:11:04;10.80;99.90
15556;DHT22;7879;48.660;9.116;2023-10-09T07:14:21;10.80;99.90
15556;DHT22;7879;48.660;9.116;2023-10-09T07:17:04;10.90;99.90
15556;DHT22;7879;48.660;9.116;2023-10-09T07:19:43;10.90;99.90
15556;DHT22;7879;48.660;9.116;2023-10-09T07:22:11;10.90;99.90
15556;DHT22;7879;48.660;9.116;2023-10-09T07:24:55;10.90;99.90
15556;DHT22;7879;48.660;9.116;2023-10-09T07:27:40;11.00;99.90
15556;DHT22;7879;48.660;9.116;2023-10-09T07:30:18;11.10;99.90
15556;DHT22;7879;48.660;9.116;2023-10-09T07:33:04;11.10;99.90
15556;DHT22;7879;48.660;9.116;2023-10-09T07:35:40;11.10;99.90
15556;DHT22;7879;48.660;9.116;2023-10-09T07:38:21;11.20;99.90
15556;DHT22;7879;48.660;9.116;2023-10-09T07:40:56;11.20;99.90
15556;DHT22;7879;48.660;9.116;2023-10-09T07:43:28;11.30;99.90
15556;DHT22;7879;48.660;9.116;2023-10-09T07:46:02;11.40;99.90
15556;DHT22;7879;48.660;9.116;2023-10-09T07:48:48;11.40;99.90
15556;DHT22;7879;48.660;9.116;2023-10-09T07:51:19;11.50;99.90
15556;DHT22;7879;48.660;9.116;2023-10-09T07:54:01;11.60;99.90
15556;DHT22;7879;48.660;9.116;2023-10-09T07:56:35;11.60;99.90
15556;DHT22;7879;48.660;9.116;2023-10-09T07:59:19;11.70;99.90
15556;DHT22;7879;48.660;9.116;2023-10-09T08:01:49;11.70;99.90
15556;DHT22;7879;48.660;9.116;2023-10-09T08:04:23;11.80;99.90
15556;DHT22;7879;48.660;9.116;2023-10-09T08:07:10;11.80;99.90
15556;DHT22;7879;48.660;9.116;2023-10-09T08:10:08;11.90;99.90
15556;DHT22;7879;48.660;9.116;2023-10-09T08:12:44;12.00;99.90
15556;DHT22;7879;48.660;9.116;2023-10-09T08:15:11;12.10;99.90
15556;DHT22;7879;48.660;9.116;2023-10-09T08:17:56;12.20;99.90
15556;DHT22;7879;48.660;9.116;2023-10-09T08:20:31;12.30;99.90
15556;DHT22;7879;48.660;9.116;2023-10-09T08:23:18;12.40;99.90
15556;DHT22;7879;48.660;9.116;2023-10-09T08:26:02;12.50;99.90
15556;DHT22;7879;48.660;9.116;2023-10-09T08:28:42;12.80;99.90
15556;DHT22;7879;48.660;9.116;2023-10-09T08:31:17;12.80;99.90
15556;DHT22;7879;48.660;9.116;2023-10-09T08:34:13;12.80;99.90
15556;DHT22;7879;48.660;9.116;2023-10-09T08:40:44;12.90;99.90
15556;DHT22;7879;48.660;9.116;2023-10-09T08:43:19;13.00;99.90
15556;DHT22;7879;48.660;9.116;2023-10-09T08:45:51;13.20;99.90
15556;DHT22;7879;48.660;9.116;2023-10-09T08:48:20;13.20;99.90
15556;DHT22;7879;48.660;9.116;2023-10-09T08:50:54;13.20;99.90
15556;DHT22;7879;48.660;9.116;2023-10-09T08:53:23;13.30;99.90
15556;DHT22;7879;48.660;9.116;2023-10-09T08:55:57;13.30;99.90
15556;DHT22;7879;48.660;9.116;2023-10-09T08:58:24;13.40;99.90
15556;DHT22;7879;48.660;9.116;2023-10-09T09:00:55;13.50;99.90
15556;DHT22;7879;48.660;9.116;2023-10-09T09:06:14;13.60;99.90
15556;DHT22;7879;48.660;9.116;2023-10-09T09:08:43;13.70;99.90
15556;DHT22;7879;48.660;9.116;2023-10-09T09:11:16;13.70;99.90
15556;DHT22;7879;48.660;9.116;2023-10-09T09:13:59;13.70;99.90
15556;DHT22;7879;48.660;9.116;2023-10-09T09:16:55;13.90;99.90
15556;DHT22;7879;48.660;9.116;2023-10-09T09:19:31;13.90;99.90
15556;DHT22;7879;48.660;9.116;2023-10-09T09:22:01;14.00;99.90
15556;DHT22;7879;48.660;9.116;2023-10-09T09:24:59;14.10;99.90
15556;DHT22;7879;48.660;9.116;2023-10-09T09:27:46;14.10;99.90
15556;DHT22;7879;48.660;9.116;2023-10-09T09:30:26;14.20;99.90
15556;DHT22;7879;48.660;9.116;2023-10-09T09:33:26;14.30;99.90
15556;DHT22;7879;48.660;9.116;2023-10-09T09:36:01;14.50;99.90
15556;DHT22;7879;48.660;9.116;2023-10-09T09:38:33;14.60;99.90
15556;DHT22;7879;48.660;9.116;2023-10-09T09:41:09;14.60;99.90
15556;DHT22;7879;48.660;9.116;2023-10-09T09:43:39;14.80;99.90
15556;DHT22;7879;48.660;9.116;2023-10-09T09:46:08;14.90;99.90
15556;DHT22;7879;48.660;9.116;2023-10-09T09:48:38;15.00;99.90
15556;DHT22;7879;48.660;9.116;2023-10-09T09:51:12;15.00;99.90
15556;DHT22;7879;48.660;9.116;2023-10-09T09:53:42;15.10;99.90
15556;DHT22;7879;48.660;9.116;2023-10-09T09:56:10;15.20;99.90
15556;DHT22;7879;48.660;9.116;2023-10-09T09:58:46;15.30;99.90
15556;DHT22;7879;48.660;9.116;2023-10-09T10:01:25;15.40;99.90
15556;DHT22;7879;48.660;9.116;2023-10-09T10:04:03;15.60;99.90
15556;DHT22;7879;48.660;9.116;2023-10-09T10:06:32;15.70;99.90
15556;DHT22;7879;48.660;9.116;2023-10-09T10:09:00;15.90;99.90
15556;DHT22;7879;48.660;9.116;2023-10-09T10:11:45;16.00;99.90
15556;DHT22;7879;48.660;9.116;2023-10-09T10:14:13;16.20;99.90
15556;DHT22;7879;48.660;9.116;2023-10-09T10:17:06;16.30;99.90
15556;DHT22;7879;48.660;9.116;2023-10-09T10:22:27;16.50;99.90
15556;DHT22;7879;48.660;9.116;2023-10-09T10:24:55;16.70;99.90
15556;DHT22;7879;48.660;9.116;2023-10-09T10:27:26;16.80;99.90
15556;DHT22;7879;48.660;9.116;2023-10-09T10:35:22;17.10;99.90
15556;DHT22;7879;48.660;9.116;2023-10-09T10:40:49;17.40;99.90
15556;DHT22;7879;48.660;9.116;2023-10-09T10:43:24;17.40;99.90
15556;DHT22;7879;48.660;9.116;2023-10-09T10:46:10;17.70;99.90
15556;DHT22;7879;48.660;9.116;2023-10-09T10:49:03;17.80;99.90
15556;DHT22;7879;48.660;9.116;2023-10-09T10:51:42;17.80;99.90
15556;DHT22;7879;48.660;9.116;2023-10-09T10:54:25;18.00;99.90
15556;DHT22;7879;48.660;9.116;2023-10-09T10:56:58;18.10;99.90
15556;DHT22;7879;48.660;9.116;2023-10-09T10:59:39;18.20;99.90
15556;DHT22;7879;48.660;9.116;2023-10-09T11:02:12;18.30;99.90
15556;DHT22;7879;48.660;9.116;2023-10-09T11:04:39;18.50;99.90
15556;DHT22;7879;48.660;9.116;2023-10-09T11:07:11;18.50;99.90
15556;DHT22;7879;48.660;9.116;2023-10-09T11:09:53;18.50;99.90
15556;DHT22;7879;48.660;9.116;2023-10-09T11:12:45;18.50;99.90
15556;DHT22;7879;48.660;9.116;2023-10-09T11:15:36;18.40;99.90
15556;DHT22;7879;48.660;9.116;2023-10-09T11:18:40;18.50;99.90
15556;DHT22;7879;48.660;9.116;2023-10-09T11:21:16;18.50;99.90
15556;DHT22;7879;48.660;9.116;2023-10-09T11:23:43;18.80;99.90
15556;DHT22;7879;48.660;9.116;2023-10-09T11:26:33;19.00;99.90
15556;DHT22;7879;48.660;9.116;2023-10-09T11:29:11;19.20;99.90
15556;DHT22;7879;48.660;9.116;2023-10-09T11:32:02;19.30;99.90
15556;DHT22;7879;48.660;9.116;2023-10-09T11:34:35;19.50;99.90
15556;DHT22;7879;48.660;9.116;2023-10-09T11:37:16;19.60;99.90
15556;DHT22;7879;48.660;9.116;2023-10-09T11:39:43;19.60;99.90
15556;DHT22;7879;48.660;9.116;2023-10-09T11:42:21;19.60;99.90
15556;DHT22;7879;48.660;9.116;2023-10-09T11:45:22;19.50;99.90
15556;DHT22;7879;48.660;9.116;2023-10-09T11:47:56;19.50;99.90
15556;DHT22;7879;48.660;9.116;2023-10-09T11:50:44;19.50;99.90
15556;DHT22;7879;48.660;9.116;2023-10-09T11:53:43;19.40;99.90
15556;DHT22;7879;48.660;9.116;2023-10-09T11:56:13;19.40;99.90
15556;DHT22;7879;48.660;9.116;2023-10-09T11:58:49;19.30;99.90
15556;DHT22;7879;48.660;9.116;2023-10-09T12:01:17;19.30;99.90
15556;DHT22;7879;48.660;9.116;2023-10-09T12:03:47;19.30;99.90
15556;DHT22;7879;48.660;9.116;2023-10-09T12:13:31;19.30;99.90
15556;DHT22;7879;48.660;9.116;2023-10-09T12:15:58;19.30;99.90
15556;DHT22;7879;48.660;9.116;2023-10-09T12:18:25;19.30;99.90
15556;DHT22;7879;48.660;9.116;2023-10-09T12:20:52;19.20;99.90
15556;DHT22;7879;48.660;9.116;2023-10-09T12:23:21;19.20;99.90
15556;DHT22;7879;48.660;9.116;2023-10-09T12:25:49;19.30;99.90
15556;DHT22;7879;48.660;9.116;2023-10-09T12:28:17;19.20;99.90
15556;DHT22;7879;48.660;9.116;2023-10-09T12:30:48;19.40;99.90
15556;DHT22;7879;48.660;9.116;2023-10-09T12:33:18;19.60;99.90
15556;DHT22;7879;48.660;9.116;2023-10-09T12:35:46;19.60;99.90
15556;DHT22;7879;48.660;9.116;2023-10-09T12:38:14;19.70;99.90
15556;DHT22;7879;48.660;9.116;2023-10-09T12:40:46;19.90;99.90
15556;DHT22;7879;48.660;9.116;2023-10-09T12:43:19;19.90;99.90
15556;DHT22;7879;48.660;9.116;2023-10-09T12:45:46;20.10;99.90
15556;DHT22;7879;48.660;9.116;2023-10-09T12:48:13;20.10;99.90
15556;DHT22;7879;48.660;9.116;2023-10-09T12:50:41;20.40;99.90
15556;DHT22;7879;48.660;9.116;2023-10-09T12:53:08;20.40;99.90
15556;DHT22;7879;48.660;9.116;2023-10-09T12:55:36;20.50;99.90
15556;DHT22;7879;48.660;9.116;2023-10-09T12:58:08;20.70;99.90
15556;DHT22;7879;48.660;9.116;2023-10-09T13:00:37;20.80;99.90
15556;DHT22;7879;48.660;9.116;2023-10-09T13:03:06;20.80;99.90
15556;DHT22;7879;48.660;9.116;2023-10-09T13:05:54;20.90;99.90
15556;DHT22;7879;48.660;9.116;2023-10-09T13:08:23;20.90;99.90
15556;DHT22;7879;48.660;9.116;2023-10-09T13:10:51;21.00;99.90
15556;DHT22;7879;48.660;9.116;2023-10-09T13:13:26;21.00;99.90
15556;DHT22;7879;48.660;9.116;2023-10-09T13:16:10;21.00;99.90
15556;DHT22;7879;48.660;9.116;2023-10-09T13:18:40;21.10;99.90
15556;DHT22;7879;48.660;9.116;2023-10-09T13:21:08;21.20;99.90
15556;DHT22;7879;48.660;9.116;2023-10-09T13:23:35;21.20;99.90
15556;DHT22;7879;48.660;9.116;2023-10-09T13:26:06;21.20;98.70
15556;DHT22;7879;48.660;9.116;2023-10-09T13:28:58;21.10;97.70
15556;DHT22;7879;48.660;9.116;2023-10-09T13:31:26;21.10;98.30
15556;DHT22;7879;48.660;9.116;2023-10-09T13:33:54;21.10;98.40
15556;DHT22;7879;48.660;9.116;2023-10-09T13:36:25;21.20;98.00
15556;DHT22;7879;48.660;9.116;2023-10-09T13:39:02;21.30;97.70
15556;DHT22;7879;48.660;9.116;2023-10-09T13:41:54;21.30;97.40
15556;DHT22;7879;48.660;9.116;2023-10-09T13:44:29;21.20;97.90
15556;DHT22;7879;48.660;9.116;2023-10-09T13:47:01;21.30;97.80
15556;DHT22;7879;48.660;9.116;2023-10-09T13:49:28;21.30;97.70
15556;DHT22;7879;48.660;9.116;2023-10-09T13:52:00;21.40;96.80
15556;DHT22;7879;48.660;9.116;2023-10-09T13:54:29;21.50;96.40
15556;DHT22;7879;48.660;9.116;2023-10-09T13:57:03;21.50;96.50
15556;DHT22;7879;48.660;9.116;2023-10-09T13:59:34;21.60;96.30
15556;DHT22;7879;48.660;9.116;2023-10-09T14:02:03;21.70;95.60
15556;DHT22;7879;48.660;9.116;2023-10-09T14:04:37;21.80;95.50
15556;DHT22;7879;48.660;9.116;2023-10-09T14:07:04;21.80;94.70
15556;DHT22;7879;48.660;9.116;2023-10-09T14:09:33;21.80;95.80
15556;DHT22;7879;48.660;9.116;2023-10-09T14:12:22;21.90;95.30
15556;DHT22;7879;48.660;9.116;2023-10-09T14:14:51;21.80;95.20
15556;DHT22;7879;48.660;9.116;2023-10-09T14:17:22;21.80;95.10
15556;DHT22;7879;48.660;9.116;2023-10-09T14:19:56;21.90;94.30
15556;DHT22;7879;48.660;9.116;2023-10-09T14:22:43;21.90;94.20
15556;DHT22;7879;48.660;9.116;2023-10-09T14:25:12;21.90;93.80
15556;DHT22;7879;48.660;9.116;2023-10-09T14:27:42;22.00;92.70
15556;DHT22;7879;48.660;9.116;2023-10-09T14:30:09;22.10;93.70
15556;DHT22;7879;48.660;9.116;2023-10-09T14:32:45;22.10;92.50
15556;DHT22;7879;48.660;9.116;2023-10-09T14:35:18;22.10;91.60
15556;DHT22;7879;48.660;9.116;2023-10-09T14:37:48;22.10;91.20
15556;DHT22;7879;48.660;9.116;2023-10-09T14:40:15;22.10;91.30
15556;DHT22;7879;48.660;9.116;2023-10-09T14:42:48;22.20;91.10
15556;DHT22;7879;48.660;9.116;2023-10-09T14:45:26;22.20;92.20
15556;DHT22;7879;48.660;9.116;2023-10-09T14:47:53;22.20;90.40
15556;DHT22;7879;48.660;9.116;2023-10-09T14:50:27;22.10;91.90
15556;DHT22;7879;48.660;9.116;2023-10-09T14:52:53;22.10;90.40
15556;DHT22;7879;48.660;9.116;2023-10-09T14:55:20;22.10;90.70
15556;DHT22;7879;48.660;9.116;2023-10-09T14:57:48;22.00;90.70
15556;DHT22;7879;48.660;9.116;2023-10-09T15:00:17;22.00;90.90
15556;DHT22;7879;48.660;9.116;2023-10-09T15:02:51;21.90;91.30
15556;DHT22;7879;48.660;9.116;2023-10-09T15:05:18;21.80;91.80
15556;DHT22;7879;48.660;9.116;2023-10-09T15:07:45;21.80;92.00
15556;DHT22;7879;48.660;9.116;2023-10-09T15:10:13;21.70;92.80
15556;DHT22;7879;48.660;9.116;2023-10-09T15:12:44;21.70;92.70
15556;DHT22;7879;48.660;9.116;2023-10-09T15:15:14;21.70;92.40
15556;DHT22;7879;48.660;9.116;2023-10-09T15:17:42;21.70;93.10
15556;DHT22;7879;48.660;9.116;2023-10-09T15:20:15;21.70;92.40
15556;DHT22;7879;48.660;9.116;2023-10-09T15:22:43;21.70;92.30
15556;DHT22;7879;48.660;9.116;2023-10-09T15:25:11;21.70;93.30
15556;DHT22;7879;48.660;9.116;2023-10-09T15:27:44;21.70;92.20
15556;DHT22;7879;48.660;9.116;2023-10-09T15:30:11;21.60;92.30
15556;DHT22;7879;48.660;9.116;2023-10-09T15:32:44;21.60;93.50
15556;DHT22;7879;48.660;9.116;2023-10-09T15:35:11;21.60;92.60
15556;DHT22;7879;48.660;9.116;2023-10-09T15:37:40;21.60;92.50
15556;DHT22;7879;48.660;9.116;2023-10-09T15:40:08;21.60;92.20
15556;DHT22;7879;48.660;9.116;2023-10-09T15:42:46;21.60;91.80
15556;DHT22;7879;48.660;9.116;2023-10-09T15:45:18;21.50;92.30
15556;DHT22;7879;48.660;9.116;2023-10-09T15:47:48;21.50;93.40
15556;DHT22;7879;48.660;9.116;2023-10-09T15:50:18;21.40;93.30
15556;DHT22;7879;48.660;9.116;2023-10-09T15:52:46;21.30;93.60
15556;DHT22;7879;48.660;9.116;2023-10-09T15:55:16;21.20;94.50
15556;DHT22;7879;48.660;9.116;2023-10-09T15:57:47;21.20;94.70
15556;DHT22;7879;48.660;9.116;2023-10-09T16:00:25;21.00;95.30
15556;DHT22;7879;48.660;9.116;2023-10-09T16:02:56;21.00;95.90
15556;DHT22;7879;48.660;9.116;2023-10-09T16:05:23;20.90;96.00
15556;DHT22;7879;48.660;9.116;2023-10-09T16:07:53;20.90;96.10
15556;DHT22;7879;48.660;9.116;2023-10-09T16:10:21;20.80;96.60
15556;DHT22;7879;48.660;9.116;2023-10-09T16:12:49;20.70;96.80
15556;DHT22;7879;48.660;9.116;2023-10-09T16:15:18;20.60;96.60
15556;DHT22;7879;48.660;9.116;2023-10-09T16:17:47;20.60;96.90
15556;DHT22;7879;48.660;9.116;2023-10-09T16:20:14;20.50;96.50
15556;DHT22;7879;48.660;9.116;2023-10-09T16:22:49;20.50;96.50
15556;DHT22;7879;48.660;9.116;2023-10-09T16:25:16;20.50;97.20
15556;DHT22;7879;48.660;9.116;2023-10-09T16:27:47;20.50;97.30
15556;DHT22;7879;48.660;9.116;2023-10-09T16:30:18;20.40;97.80
15556;DHT22;7879;48.660;9.116;2023-10-09T16:32:50;20.30;97.90
15556;DHT22;7879;48.660;9.116;2023-10-09T16:35:18;20.20;98.10
15556;DHT22;7879;48.660;9.116;2023-10-09T16:37:49;20.20;98.30
15556;DHT22;7879;48.660;9.116;2023-10-09T16:40:16;20.10;98.40
15556;DHT22;7879;48.660;9.116;2023-10-09T16:42:47;20.00;98.70
15556;DHT22;7879;48.660;9.116;2023-10-09T16:45:16;19.90;98.70
15556;DHT22;7879;48.660;9.116;2023-10-09T16:47:48;19.80;98.80
15556;DHT22;7879;48.660;9.116;2023-10-09T16:50:18;19.80;98.70
15556;DHT22;7879;48.660;9.116;2023-10-09T16:52:46;19.60;98.90
15556;DHT22;7879;48.660;9.116;2023-10-09T16:55:14;19.60;99.10
15556;DHT22;7879;48.660;9.116;2023-10-09T16:57:45;19.60;99.60
15556;DHT22;7879;48.660;9.116;2023-10-09T17:00:19;19.40;99.80